createdAt,value
2018-07-20T00:02:27.361Z,99.90
2018-07-20T00:05:03.254Z,99.90
2018-07-20T00:10:14.244Z,99.90
2018-07-20T00:12:49.783Z,99.90
2018-07-20T00:15:25.326Z,99.90
2018-07-20T00:18:01.185Z,99.90
2018-07-20T00:20:37.158Z,99.90
2018-07-20T00:23:18.974Z,99.90
2018-07-20T00:25:54.800Z,99.90
2018-07-20T00:28:30.222Z,99.90
2018-07-20T00:31:05.995Z,99.90
2018-07-20T00:33:41.402Z,99.90
2018-07-20T00:36:16.880Z,99.90
2018-07-20T00:38:52.328Z,99.90
2018-07-20T00:41:34.099Z,99.90
2018-07-20T00:44:09.693Z,99.90
2018-07-20T00:46:45.486Z,99.90
2018-07-20T00:49:20.826Z,99.90
2018-07-20T00:54:31.233Z,99.90
2018-07-20T00:57:06.883Z,99.90
2018-07-20T00:59:42.375Z,99.90
2018-07-20T01:02:17.855Z,99.90
2018-07-20T01:04:53.317Z,99.90
2018-07-20T01:07:28.970Z,99.90
2018-07-20T01:10:04.459Z,99.90
2018-07-20T01:12:39.938Z,99.90
2018-07-20T01:15:15.446Z,99.90
2018-07-20T01:17:51.034Z,99.90
2018-07-20T01:20:26.707Z,99.90
2018-07-20T01:23:02.256Z,99.90
2018-07-20T01:25:37.597Z,99.90
2018-07-20T01:28:13.121Z,99.90
2018-07-20T01:30:48.609Z,99.90
2018-07-20T01:33:24.115Z,99.90
2018-07-20T01:35:59.574Z,99.90
2018-07-20T01:38:35.050Z,99.90
2018-07-20T01:41:10.509Z,99.90
2018-07-20T01:43:45.998Z,99.90
2018-07-20T01:46:21.368Z,99.90
2018-07-20T01:48:56.807Z,99.90
2018-07-20T01:51:32.186Z,99.90
2018-07-20T01:54:07.749Z,99.90
2018-07-20T01:56:43.178Z,99.90
2018-07-20T01:59:18.685Z,99.90
2018-07-20T02:01:54.153Z,99.90
2018-07-20T02:04:29.787Z,99.90
2018-07-20T02:07:05.181Z,99.90
2018-07-20T02:09:40.658Z,99.90
2018-07-20T02:12:16.295Z,99.90
2018-07-20T02:14:52.066Z,99.90
2018-07-20T02:17:27.594Z,99.90
2018-07-20T02:20:03.881Z,99.90
2018-07-20T02:22:39.338Z,99.90
2018-07-20T02:25:15.070Z,99.90
2018-07-20T02:27:50.603Z,99.90
2018-07-20T02:30:26.301Z,99.90
2018-07-20T02:33:01.633Z,99.90
2018-07-20T02:35:37.180Z,99.90
2018-07-20T02:38:12.460Z,99.90
2018-07-20T02:40:47.954Z,99.90
2018-07-20T02:43:23.452Z,99.90
2018-07-20T02:45:58.841Z,99.90
2018-07-20T02:48:34.246Z,99.90
2018-07-20T02:51:09.826Z,99.90
2018-07-20T02:53:45.069Z,99.90
2018-07-20T02:56:20.620Z,99.90
2018-07-20T02:58:56.114Z,99.90
2018-07-20T03:01:31.708Z,99.90
2018-07-20T03:04:07.156Z,99.90
2018-07-20T03:06:42.707Z,99.90
2018-07-20T03:09:17.887Z,99.90
2018-07-20T03:11:53.694Z,99.90
2018-07-20T03:14:29.228Z,99.90
2018-07-20T03:17:04.708Z,99.90
2018-07-20T03:19:40.468Z,99.90
2018-07-20T03:22:16.047Z,99.90
2018-07-20T03:24:51.218Z,99.90
2018-07-20T03:27:26.670Z,99.90
2018-07-20T03:30:02.098Z,99.90
2018-07-20T03:32:37.731Z,99.90
2018-07-20T03:35:13.089Z,99.90
2018-07-20T03:37:48.679Z,99.90
2018-07-20T03:40:24.009Z,99.90
2018-07-20T03:42:59.546Z,99.90
2018-07-20T03:45:34.811Z,99.90
2018-07-20T03:48:10.341Z,99.90
2018-07-20T03:50:46.042Z,99.90
2018-07-20T03:55:57.346Z,99.90
2018-07-20T04:03:43.209Z,99.90
2018-07-20T04:06:18.422Z,99.90
2018-07-20T04:08:53.893Z,99.90
2018-07-20T04:11:29.252Z,99.90
2018-07-20T04:14:05.917Z,99.90
2018-07-20T04:16:41.191Z,99.90
2018-07-20T04:19:16.847Z,99.90
2018-07-20T04:21:52.232Z,99.90
2018-07-20T04:24:27.760Z,99.90
2018-07-20T04:27:03.122Z,99.90
2018-07-20T04:29:38.587Z,99.90
2018-07-20T04:32:13.809Z,99.90
2018-07-20T04:34:49.270Z,99.90
2018-07-20T04:37:24.510Z,99.90
2018-07-20T04:40:00.074Z,99.90
2018-07-20T04:42:36.198Z,99.90
2018-07-20T04:45:11.869Z,99.90
2018-07-20T04:47:47.439Z,99.90
2018-07-20T04:50:23.178Z,99.90
2018-07-20T04:55:34.086Z,99.90
2018-07-20T04:58:09.329Z,99.90
2018-07-20T05:03:19.946Z,99.90
2018-07-20T05:05:55.676Z,99.90
2018-07-20T05:08:31.117Z,99.90
2018-07-20T05:11:06.632Z,99.90
2018-07-20T05:13:42.162Z,99.90
2018-07-20T05:16:17.827Z,99.90
2018-07-20T05:18:53.492Z,99.90
2018-07-20T05:21:29.052Z,99.90
2018-07-20T05:24:05.490Z,99.90
2018-07-20T05:26:41.038Z,99.90
2018-07-20T05:29:16.412Z,99.90
2018-07-20T05:31:52.030Z,99.90
2018-07-20T05:34:27.619Z,99.90
2018-07-20T05:37:03.343Z,99.90
2018-07-20T05:39:38.875Z,99.90
2018-07-20T05:42:14.527Z,99.90
2018-07-20T05:44:50.189Z,99.90
2018-07-20T05:47:25.779Z,99.90
2018-07-20T05:50:01.454Z,99.90
2018-07-20T05:52:36.798Z,99.90
2018-07-20T05:55:12.634Z,99.90
2018-07-20T05:57:48.225Z,99.90
2018-07-20T06:00:23.742Z,99.90
2018-07-20T06:02:59.706Z,99.90
2018-07-20T06:05:35.025Z,99.90
2018-07-20T06:10:45.882Z,99.90
2018-07-20T06:13:21.405Z,99.90
2018-07-20T06:15:56.881Z,99.90
2018-07-20T06:18:32.706Z,99.90
2018-07-20T06:21:08.334Z,99.90
2018-07-20T06:26:19.680Z,99.90
2018-07-20T06:28:55.190Z,99.90
2018-07-20T06:31:30.707Z,99.90
2018-07-20T06:34:06.307Z,99.90
2018-07-20T06:36:41.677Z,99.90
2018-07-20T06:39:17.190Z,99.90
2018-07-20T06:41:52.633Z,99.90
2018-07-20T06:44:28.712Z,99.90
2018-07-20T06:47:04.035Z,99.90
2018-07-20T06:49:39.490Z,99.90
2018-07-20T06:52:15.011Z,99.90
2018-07-20T06:54:50.477Z,99.90
2018-07-20T06:57:25.925Z,99.90
2018-07-20T07:00:01.527Z,99.90
2018-07-20T07:02:37.130Z,99.90
2018-07-20T07:05:12.769Z,99.90
2018-07-20T07:07:48.142Z,99.90
2018-07-20T07:10:23.860Z,99.90
2018-07-20T07:12:59.049Z,99.90
2018-07-20T07:15:34.571Z,99.90
2018-07-20T07:18:10.021Z,99.90
2018-07-20T07:20:46.410Z,99.90
2018-07-20T07:23:21.748Z,99.90
2018-07-20T07:25:57.458Z,99.90
2018-07-20T07:28:32.978Z,99.90
2018-07-20T07:31:09.066Z,99.90
2018-07-20T07:33:44.511Z,99.90
2018-07-20T07:38:55.657Z,99.90
2018-07-20T07:41:31.452Z,99.90
2018-07-20T07:44:07.045Z,99.90
2018-07-20T07:46:42.651Z,99.90
2018-07-20T07:49:18.484Z,99.90
2018-07-20T07:51:54.276Z,99.90
2018-07-20T07:54:29.662Z,99.90
2018-07-20T07:57:05.442Z,99.90
2018-07-20T07:59:40.762Z,99.90
2018-07-20T08:02:16.463Z,99.90
2018-07-20T08:04:51.867Z,99.90
2018-07-20T08:07:27.448Z,99.90
2018-07-20T08:10:02.905Z,99.90
2018-07-20T08:12:38.325Z,99.90
2018-07-20T08:15:13.517Z,99.90
2018-07-20T08:17:48.974Z,99.90
2018-07-20T08:20:24.477Z,99.90
2018-07-20T08:23:00.076Z,99.90
2018-07-20T08:25:35.394Z,99.90
2018-07-20T08:28:11.309Z,99.90
2018-07-20T08:30:46.633Z,99.90
2018-07-20T08:33:22.109Z,99.90
2018-07-20T08:35:57.284Z,99.90
2018-07-20T08:38:32.675Z,99.90
2018-07-20T08:41:07.919Z,99.90
2018-07-20T08:43:43.568Z,99.50
2018-07-20T08:46:19.590Z,99.90
2018-07-20T08:48:55.280Z,99.40
2018-07-20T08:51:30.843Z,99.40
2018-07-20T08:54:06.300Z,99.90
2018-07-20T08:56:41.861Z,99.40
2018-07-20T08:59:17.474Z,99.10
2018-07-20T09:01:52.697Z,99.10
2018-07-20T09:04:28.203Z,99.90
2018-07-20T09:07:03.514Z,99.40
2018-07-20T09:09:38.955Z,99.90
2018-07-20T09:12:14.397Z,99.90
2018-07-20T09:14:49.869Z,99.90
2018-07-20T09:17:25.389Z,99.90
2018-07-20T09:20:01.264Z,99.90
2018-07-20T09:22:36.809Z,99.90
2018-07-20T09:25:12.272Z,99.90
2018-07-20T09:27:47.696Z,99.90
2018-07-20T09:30:23.221Z,99.90
2018-07-20T09:35:33.900Z,99.90
2018-07-20T09:38:09.085Z,99.90
2018-07-20T09:40:44.799Z,99.90
2018-07-20T09:43:20.252Z,99.90
2018-07-20T09:45:55.995Z,99.90
2018-07-20T09:48:31.365Z,99.90
2018-07-20T09:51:06.784Z,99.90
2018-07-20T09:53:41.983Z,99.90
2018-07-20T09:56:17.727Z,99.90
2018-07-20T09:58:53.175Z,99.90
2018-07-20T10:01:28.668Z,99.60
2018-07-20T10:04:04.036Z,99.30
2018-07-20T10:06:39.357Z,99.70
2018-07-20T10:09:14.945Z,99.90
2018-07-20T10:11:50.549Z,99.90
2018-07-20T10:14:25.961Z,99.40
2018-07-20T10:17:01.367Z,99.80
2018-07-20T10:22:12.442Z,99.00
2018-07-20T10:24:47.891Z,99.00
2018-07-20T10:27:23.521Z,99.00
2018-07-20T10:29:58.970Z,99.60
2018-07-20T10:32:34.521Z,99.70
2018-07-20T10:35:09.888Z,99.80
2018-07-20T10:37:45.335Z,98.40
2018-07-20T10:40:25.540Z,98.50
2018-07-20T10:43:01.245Z,98.30
2018-07-20T10:45:36.706Z,98.00
2018-07-20T10:48:12.442Z,97.60
2018-07-20T10:50:47.921Z,97.00
2018-07-20T10:55:58.605Z,98.10
2018-07-20T10:58:40.645Z,97.90
2018-07-20T11:01:16.079Z,97.60
2018-07-20T11:03:53.298Z,97.70
2018-07-20T11:06:28.880Z,98.00
2018-07-20T11:09:06.110Z,97.00
2018-07-20T11:11:41.517Z,96.70
2018-07-20T11:14:16.893Z,96.40
2018-07-20T11:16:52.357Z,96.40
2018-07-20T11:19:28.097Z,96.70
2018-07-20T11:22:03.512Z,95.80
2018-07-20T11:24:39.240Z,96.80
2018-07-20T11:27:14.560Z,95.60
2018-07-20T11:29:50.088Z,95.70
2018-07-20T11:32:25.425Z,95.40
2018-07-20T11:35:00.873Z,94.60
2018-07-20T11:37:36.409Z,94.60
2018-07-20T11:40:11.870Z,94.30
2018-07-20T11:42:47.301Z,93.90
2018-07-20T11:45:22.850Z,93.40
2018-07-20T11:50:33.849Z,93.50
2018-07-20T11:53:09.184Z,92.90
2018-07-20T11:55:44.642Z,93.20
2018-07-20T11:58:20.085Z,93.30
2018-07-20T12:00:55.572Z,92.40
2018-07-20T12:03:30.929Z,92.70
2018-07-20T12:06:06.518Z,93.20
2018-07-20T12:08:41.894Z,92.60
2018-07-20T12:11:17.412Z,92.80
2018-07-20T12:13:52.834Z,92.70
2018-07-20T12:16:28.200Z,92.60
2018-07-20T12:19:03.842Z,92.50
2018-07-20T12:21:39.389Z,91.80
2018-07-20T12:24:14.628Z,91.80
2018-07-20T12:26:50.182Z,92.10
2018-07-20T12:29:25.621Z,91.80
2018-07-20T12:32:00.973Z,92.30
2018-07-20T12:34:36.416Z,91.80
2018-07-20T12:37:11.957Z,91.70
2018-07-20T12:39:47.137Z,91.30
2018-07-20T12:42:22.649Z,91.20
2018-07-20T12:44:57.841Z,91.70
2018-07-20T12:50:08.476Z,91.60
2018-07-20T12:52:44.046Z,90.50
2018-07-20T12:55:19.411Z,90.00
2018-07-20T12:57:55.117Z,90.30
2018-07-20T13:00:30.369Z,90.90
2018-07-20T13:03:05.908Z,90.10
2018-07-20T13:05:41.360Z,90.20
2018-07-20T13:08:16.792Z,90.60
2018-07-20T13:10:52.164Z,90.70
2018-07-20T13:13:27.681Z,90.70
2018-07-20T13:16:03.065Z,90.30
2018-07-20T13:18:38.674Z,89.80
2018-07-20T13:21:14.125Z,90.10
2018-07-20T13:23:49.767Z,89.30
2018-07-20T13:26:25.025Z,89.80
2018-07-20T13:29:00.590Z,89.30
2018-07-20T13:31:35.910Z,88.40
2018-07-20T13:34:11.350Z,88.50
2018-07-20T13:36:46.653Z,88.40
2018-07-20T13:39:22.205Z,87.50
2018-07-20T13:41:57.571Z,88.10
2018-07-20T13:44:33.333Z,88.70
2018-07-20T13:47:08.894Z,87.90
2018-07-20T13:49:44.733Z,87.90
2018-07-20T13:52:20.249Z,87.00
2018-07-20T13:54:55.929Z,87.60
2018-07-20T13:57:31.185Z,87.70
2018-07-20T14:00:08.256Z,86.50
2018-07-20T14:02:43.577Z,87.80
2018-07-20T14:05:19.360Z,87.70
2018-07-20T14:07:54.784Z,87.60
2018-07-20T14:10:30.440Z,88.20
2018-07-20T14:13:05.939Z,88.00
2018-07-20T14:15:41.441Z,87.70
2018-07-20T14:18:16.653Z,88.40
2018-07-20T14:20:52.429Z,89.00
2018-07-20T14:23:27.821Z,87.50
2018-07-20T14:26:03.425Z,87.30
2018-07-20T14:28:38.768Z,88.30
2018-07-20T14:31:14.430Z,87.20
2018-07-20T14:36:25.508Z,87.80
2018-07-20T14:39:00.986Z,86.80
2018-07-20T14:41:36.440Z,86.40
2018-07-20T14:44:11.804Z,87.50
2018-07-20T14:46:47.389Z,87.30
2018-07-20T14:49:22.716Z,87.00
2018-07-20T14:54:33.528Z,87.50
2018-07-20T14:57:09.278Z,86.90
2018-07-20T14:59:44.593Z,87.30
2018-07-20T15:02:20.122Z,86.90
2018-07-20T15:04:55.396Z,87.80
2018-07-20T15:07:30.856Z,86.80
2018-07-20T15:10:06.402Z,87.60
2018-07-20T15:12:42.059Z,87.20
2018-07-20T15:15:17.536Z,87.60
2018-07-20T15:17:52.952Z,87.80
2018-07-20T15:20:28.506Z,88.30
2018-07-20T15:23:03.931Z,86.00
2018-07-20T15:25:39.293Z,85.90
2018-07-20T15:28:14.721Z,86.50
2018-07-20T15:33:25.674Z,87.20
2018-07-20T15:36:01.093Z,87.20
2018-07-20T15:38:36.713Z,87.60
2018-07-20T15:41:12.285Z,87.70
2018-07-20T15:43:48.065Z,88.00
2018-07-20T15:46:23.426Z,86.80
2018-07-20T15:48:58.907Z,86.70
2018-07-20T15:53:35.052Z,87.90
2018-07-20T15:54:10.023Z,88.30
2018-07-20T15:56:45.507Z,87.20
2018-07-20T15:59:21.040Z,87.10
2018-07-20T16:01:56.464Z,86.30
2018-07-20T16:04:31.875Z,87.00
2018-07-20T16:07:07.337Z,87.00
2018-07-20T16:09:42.837Z,87.20
2018-07-20T16:12:19.121Z,90.00
2018-07-20T16:17:29.635Z,86.40
2018-07-20T16:20:05.787Z,86.00
2018-07-20T16:22:41.224Z,86.80
2018-07-20T16:25:16.661Z,86.90
2018-07-20T16:27:52.200Z,87.40
2018-07-20T16:30:27.663Z,87.00
2018-07-20T16:33:03.331Z,88.20
2018-07-20T16:35:38.960Z,88.20
2018-07-20T16:38:14.464Z,89.00
2018-07-20T16:40:50.157Z,89.10
2018-07-20T16:43:25.685Z,89.10
2018-07-20T16:46:01.153Z,89.40
2018-07-20T16:48:36.632Z,90.50
2018-07-20T16:51:12.958Z,90.30
2018-07-20T16:56:23.753Z,90.00
2018-07-20T16:58:59.220Z,90.10
2018-07-20T17:01:34.840Z,89.70
2018-07-20T17:04:10.363Z,89.80
2018-07-20T17:06:45.839Z,90.00
2018-07-20T17:09:21.185Z,89.20
2018-07-20T17:11:56.630Z,90.20
2018-07-20T17:14:32.092Z,89.50
2018-07-20T17:17:07.520Z,89.00
2018-07-20T17:19:43.445Z,88.70
2018-07-20T17:24:54.045Z,90.00
2018-07-20T17:27:29.605Z,90.20
2018-07-20T17:30:05.666Z,90.00
2018-07-20T17:32:41.114Z,90.00
2018-07-20T17:35:16.593Z,90.20
2018-07-20T17:37:52.316Z,90.40
2018-07-20T17:40:27.758Z,90.00
2018-07-20T17:43:03.410Z,90.20
2018-07-20T17:45:38.878Z,90.40
2018-07-20T17:48:14.292Z,89.80
2018-07-20T17:50:49.606Z,90.30
2018-07-20T17:53:25.083Z,90.20
2018-07-20T17:56:00.498Z,90.30
2018-07-20T17:58:36.177Z,90.40
2018-07-20T18:01:11.683Z,90.40
2018-07-20T18:03:47.269Z,90.70
2018-07-20T18:06:22.773Z,91.00
2018-07-20T18:08:58.365Z,91.00
2018-07-20T18:11:33.882Z,91.10
2018-07-20T18:14:09.671Z,91.20
2018-07-20T18:16:45.267Z,90.80
2018-07-20T18:19:21.453Z,91.20
2018-07-20T18:21:56.821Z,91.70
2018-07-20T18:24:32.476Z,91.40
2018-07-20T18:27:08.073Z,91.30
2018-07-20T18:29:43.573Z,91.50
2018-07-20T18:32:19.085Z,92.00
2018-07-20T18:34:54.868Z,92.20
2018-07-20T18:37:30.365Z,92.50
2018-07-20T18:40:06.233Z,92.70
2018-07-20T18:42:41.393Z,93.30
2018-07-20T18:45:16.886Z,93.20
2018-07-20T18:47:52.248Z,93.20
2018-07-20T18:50:27.847Z,93.30
2018-07-20T18:53:03.049Z,93.40
2018-07-20T18:55:38.529Z,93.10
2018-07-20T18:58:14.017Z,93.80
2018-07-20T19:00:49.830Z,93.40
2018-07-20T19:03:25.347Z,93.50
2018-07-20T19:06:00.825Z,93.70
2018-07-20T19:08:36.046Z,93.90
2018-07-20T19:11:12.023Z,93.70
2018-07-20T19:13:47.321Z,94.10
2018-07-20T19:16:22.911Z,94.40
2018-07-20T19:18:58.301Z,94.60
2018-07-20T19:21:33.905Z,94.80
2018-07-20T19:24:09.337Z,95.10
2018-07-20T19:26:45.020Z,95.20
2018-07-20T19:29:20.410Z,95.50
2018-07-20T19:31:55.902Z,95.20
2018-07-20T19:34:38.153Z,95.50
2018-07-20T19:37:13.746Z,95.60
2018-07-20T19:39:49.125Z,95.60
2018-07-20T19:42:24.655Z,95.90
2018-07-20T19:44:59.859Z,96.00
2018-07-20T19:47:35.486Z,96.20
2018-07-20T19:50:10.987Z,96.20
2018-07-20T19:52:46.405Z,96.00
2018-07-20T19:55:21.792Z,96.20
2018-07-20T19:57:57.523Z,96.10
2018-07-20T20:00:32.925Z,96.20
2018-07-20T20:03:08.396Z,95.90
2018-07-20T20:05:43.859Z,96.10
2018-07-20T20:08:19.857Z,96.30
2018-07-20T20:10:55.225Z,96.30
2018-07-20T20:13:30.781Z,96.40
2018-07-20T20:16:06.721Z,96.60
2018-07-20T20:18:42.404Z,96.70
2018-07-20T20:21:18.121Z,96.60
2018-07-20T20:26:28.740Z,96.80
2018-07-20T20:29:05.426Z,96.90
2018-07-20T20:31:41.150Z,97.00
2018-07-20T20:34:16.605Z,97.00
2018-07-20T20:36:52.081Z,97.10
2018-07-20T20:39:27.601Z,97.10
2018-07-20T20:42:02.909Z,97.30
2018-07-20T20:44:39.001Z,97.20
2018-07-20T20:47:14.348Z,97.40
2018-07-20T20:49:49.794Z,97.60
2018-07-20T20:52:25.298Z,97.80
2018-07-20T20:55:01.194Z,98.00
2018-07-20T20:57:36.586Z,98.20
2018-07-20T21:00:12.304Z,98.50
2018-07-20T21:02:47.805Z,98.70
2018-07-20T21:05:23.182Z,98.80
2018-07-20T21:07:58.719Z,99.00
2018-07-20T21:10:34.178Z,99.10
2018-07-20T21:13:09.680Z,99.40
2018-07-20T21:15:45.145Z,99.40
2018-07-20T21:18:20.441Z,99.90
2018-07-20T21:20:56.126Z,99.70
2018-07-20T21:23:31.433Z,99.90
2018-07-20T21:26:07.458Z,99.90
2018-07-20T21:28:43.030Z,99.90
2018-07-20T21:31:18.768Z,99.90
2018-07-20T21:33:53.973Z,99.90
2018-07-20T21:36:29.654Z,99.90
2018-07-20T21:39:09.283Z,99.90
2018-07-20T21:41:44.734Z,99.90
2018-07-20T21:44:20.253Z,99.90
2018-07-20T21:46:55.729Z,99.90
2018-07-20T21:49:31.227Z,99.90
2018-07-20T21:54:41.870Z,99.90
2018-07-20T21:57:17.413Z,99.90
2018-07-20T21:59:52.752Z,99.90
2018-07-20T22:02:28.402Z,99.90
2018-07-20T22:05:03.905Z,99.90
2018-07-20T22:07:39.520Z,99.90
2018-07-20T22:10:14.923Z,99.90
2018-07-20T22:12:50.488Z,99.90
2018-07-20T22:15:25.932Z,99.90
2018-07-20T22:18:01.685Z,99.90
2018-07-20T22:20:37.389Z,99.90
2018-07-20T22:23:13.005Z,99.90
2018-07-20T22:25:48.457Z,99.90
2018-07-20T22:28:24.098Z,99.90
2018-07-20T22:30:59.442Z,99.90
2018-07-20T22:33:35.481Z,99.90
2018-07-20T22:36:10.701Z,99.90
2018-07-20T22:38:46.444Z,99.90
2018-07-20T22:41:21.976Z,99.90
2018-07-20T22:43:57.570Z,99.90
2018-07-20T22:46:32.830Z,99.90
2018-07-20T22:49:08.365Z,99.90
2018-07-20T22:51:43.855Z,99.90
2018-07-20T22:54:19.352Z,99.90
2018-07-20T22:56:54.839Z,99.90
2018-07-20T22:59:30.436Z,99.90
2018-07-20T23:02:05.870Z,99.90
2018-07-20T23:04:41.437Z,99.90
2018-07-20T23:07:16.885Z,99.90
2018-07-20T23:09:52.435Z,99.90
2018-07-20T23:12:27.796Z,99.90
2018-07-20T23:15:03.220Z,99.90
2018-07-20T23:17:38.485Z,99.90
2018-07-20T23:20:14.306Z,99.90
2018-07-20T23:22:49.774Z,99.90
2018-07-20T23:25:25.319Z,99.90
2018-07-20T23:28:00.797Z,99.90
2018-07-20T23:30:36.503Z,99.90
2018-07-20T23:33:11.928Z,99.90
2018-07-20T23:35:47.381Z,99.90
2018-07-20T23:38:22.709Z,99.90
2018-07-20T23:40:59.409Z,99.90
2018-07-20T23:43:34.973Z,99.90
2018-07-20T23:46:10.714Z,99.90
2018-07-20T23:48:46.125Z,99.90
2018-07-20T23:51:21.609Z,99.90
2018-07-20T23:53:57.174Z,99.90
2018-07-20T23:56:32.803Z,99.90
2018-07-20T23:59:08.011Z,99.90
